Weather History for Meadow Lake, CO

Change the Weather History Date:

Monday, March 11, 2013

  Actual Average (KCOS) Record (KCOS)
Temperature  
Mean Temperature 40 °F 38 °F  
Max Temperature 54 °F 51 °F 77 °F (1989)
Min Temperature 27 °F 25 °F 2 °F (1932)
Degree Days  
Heating Degree Days 24 27  
Month to date heating degree days 313  
Since 1 July heating degree days 4876  
Cooling Degree Days 0 0  
Month to date cooling degree days 0  
Year to date cooling degree days 0  
Moisture  
Dew Point 17 °F    
Average Humidity 50    
Maximum Humidity 99    
Minimum Humidity 20    
Precipitation  
Precipitation 0.00 in 0.03 in 1.08 in (1909)
Month to date precipitation 0.30  
Year to date precipitation 0.96  
Snow  
Snow 0.00 in 0.20 in 25.60 in (1909)
Month to date snowfall 2.6  
Since 1 July snowfall 26.6  
Snow Depth -    
Sea Level Pressure  
Sea Level Pressure 29.99 in    
Wind  
Wind Speed 10 mph (NNW)    
Max Wind Speed 20 mph    
Max Gust Speed 29 mph    
Visibility 9 miles    
Events Fog , Snow    
T = Trace of Precipitation, MM = Missing Value Source: NWS Daily Summary

Daily Weather History Graph

Daily Weather History Graph

Search for Another Location

Airport:

Trip Planner

Search our weather history database for the weather conditions in past years. The results will help you decide how hot, cold, wet, or windy it might be!

Date:

Astronomy

Mar. 11, 2013 Rise Set
Actual Time 7:15 AM MDT 7:01 PM MDT
Civil Twilight 6:48 AM MDT 7:28 PM MDT
Nautical Twilight 6:17 AM MDT 7:59 PM MDT
Astronomical Twilight 5:46 AM MDT 8:30 PM MDT
Moon 6:50 AM MDT (3/11) 7:15 PM MDT (3/11)
Length of Visible Light 12h 39m
Length of Day
11h 46m
Waning Crescent, 0% of the Moon is Illuminated
Mar 11
Waning Crescent
Mar 11
New
Mar 19
First Quarter
Mar 27
Full
Apr 2
Last Quarter

Hourly Weather History & Observations

Time (MDT) Temp. Windchill Dew Point Humidity Pressure Visibility Wind Dir Wind Speed Gust Speed Precip Events Conditions
12:13 AM 29.7 °F 20.7 °F 14.7 °F 54% 30.03 in 10.0 mi WNW 10.4 mph - N/A   Clear
12:53 AM 29.8 °F 20.9 °F 14.5 °F 53% 30.02 in 10.0 mi WNW 10.4 mph - N/A   Clear
1:13 AM 29.1 °F 21.3 °F 14.2 °F 54% 30.02 in 10.0 mi NW 8.1 mph - N/A   Clear
1:33 AM 27.3 °F 19.1 °F 14.5 °F 59% 30.02 in 10.0 mi WNW 8.1 mph - N/A   Clear
1:53 AM 27.3 °F 19.1 °F 14.4 °F 58% 30.02 in 10.0 mi WNW 8.1 mph - N/A   Clear
2:13 AM 29.5 °F 19.9 °F 13.3 °F 51% 30.02 in 10.0 mi WNW 11.5 mph - N/A   Clear
2:33 AM 30.6 °F 21.8 °F 13.6 °F 50% 30.00 in 10.0 mi WNW 10.4 mph - N/A   Clear
2:53 AM 30.7 °F 20.9 °F 13.1 °F 48% 30.00 in 10.0 mi WNW 12.7 mph - N/A   Clear
3:13 AM 30.4 °F 21.0 °F 13.5 °F 50% 29.99 in 10.0 mi WNW 11.5 mph - N/A   Clear
3:33 AM 31.6 °F 23.1 °F 13.1 °F 46% 29.97 in 10.0 mi WNW 10.4 mph - N/A   Clear
3:53 AM 30.7 °F 21.4 °F 13.1 °F 48% 29.96 in 10.0 mi WNW 11.5 mph - N/A   Clear
4:13 AM 30.2 °F 19.8 °F 12.4 °F 48% 29.96 in 10.0 mi WNW 13.8 mph - N/A   Clear
4:33 AM 30.6 °F 22.4 °F 12.2 °F 47% 29.95 in 10.0 mi WNW 9.2 mph - N/A   Clear
4:53 AM 31.6 °F 23.1 °F 11.5 °F 43% 29.95 in 10.0 mi WNW 10.4 mph - N/A   Clear
5:13 AM 33.3 °F 24.1 °F 10.2 °F 38% 29.95 in 10.0 mi WNW 12.7 mph - N/A   Clear
5:32 AM 33.8 °F 24.8 °F 10.6 °F 38% 29.95 in 10.0 mi WNW 12.7 mph - N/A   Clear
5:53 AM 32.0 °F 24.8 °F 10.8 °F 41% 29.96 in 10.0 mi WNW 8.1 mph - N/A   Clear
6:12 AM 34.7 °F 26.9 °F 10.9 °F 37% 29.97 in 10.0 mi WNW 10.4 mph - N/A   Scattered Clouds
6:32 AM 32.5 °F 26.2 °F 11.8 °F 42% 29.97 in 10.0 mi WNW 6.9 mph - N/A   Clear
6:52 AM 32.0 °F 24.8 °F 12.9 °F 45% 29.97 in 10.0 mi NW 8.1 mph - N/A   Clear
7:12 AM 31.8 °F 26.2 °F 13.5 °F 47% 29.98 in 10.0 mi NW 5.8 mph - N/A   Clear
7:32 AM 30.9 °F 23.5 °F 13.8 °F 49% 29.99 in 10.0 mi WNW 8.1 mph - N/A   Clear
7:52 AM 33.1 °F 28.7 °F 13.5 °F 44% 29.99 in 10.0 mi WNW 4.6 mph - N/A   Clear
8:12 AM 36.0 °F 29.6 °F 14.0 °F 41% 29.99 in 10.0 mi NW 8.1 mph - N/A   Clear
8:32 AM 39.7 °F 33.7 °F 12.9 °F 33% 29.99 in 10.0 mi NW 9.2 mph - N/A   Clear
8:52 AM 41.4 °F 35.2 °F 12.4 °F 31% 30.00 in 10.0 mi NW 10.4 mph - N/A   Clear
9:12 AM 42.8 °F 38.0 °F 12.7 °F 30% 30.00 in 10.0 mi WNW 8.1 mph - N/A   Clear
9:32 AM 45.1 °F 39.1 °F 12.6 °F 27% 30.01 in 10.0 mi NW 12.7 mph 19.6 mph N/A   Clear
9:52 AM 46.0 °F 41.4 °F 12.7 °F 26% 30.01 in 10.0 mi WNW 9.2 mph - N/A   Clear
10:12 AM 47.7 °F - 12.6 °F 24% 30.00 in 10.0 mi West 6.9 mph - N/A   Clear
10:32 AM 47.5 °F - 12.2 °F 24% 30.00 in 10.0 mi West 4.6 mph - N/A   Clear
10:52 AM 47.7 °F - 10.4 °F 22% 30.00 in 10.0 mi West 5.8 mph - N/A   Clear
11:12 AM 48.9 °F - 10.9 °F 22% 30.00 in 10.0 mi West 8.1 mph - N/A   Clear
11:32 AM 49.5 °F - 10.9 °F 21% 29.99 in 10.0 mi West 4.6 mph - N/A   Clear
11:52 AM 50.2 °F - 12.0 °F 22% 29.99 in 10.0 mi WNW 9.2 mph - N/A   Clear
12:12 PM 50.7 °F - 13.8 °F 23% 29.98 in 10.0 mi West 10.4 mph 16.1 mph N/A   Clear
12:32 PM 51.8 °F - 13.8 °F 22% 29.98 in 10.0 mi West 11.5 mph 24.2 mph N/A   Clear
12:52 PM 52.0 °F - 13.3 °F 21% 29.98 in 10.0 mi NNE 6.9 mph - N/A   Clear
1:12 PM 51.3 °F - 14.7 °F 23% 29.96 in 10.0 mi NE 13.8 mph - N/A   Clear
1:32 PM 50.9 °F - 16.0 °F 25% 29.95 in 10.0 mi NE 5.8 mph - N/A   Clear
1:52 PM 51.1 °F - 16.0 °F 25% 29.94 in 10.0 mi NE 6.9 mph - N/A   Clear
2:12 PM 52.7 °F - 15.8 °F 23% 29.93 in 10.0 mi North 8.1 mph - N/A   Clear
2:32 PM 53.4 °F - 16.9 °F 24% 29.93 in 10.0 mi NE 8.1 mph - N/A   Clear
2:52 PM 52.2 °F - 16.2 °F 24% 29.93 in 10.0 mi ENE 8.1 mph 16.1 mph N/A   Clear
3:12 PM 54.3 °F - 13.8 °F 20% 29.93 in 10.0 mi ESE 9.2 mph - N/A   Clear
3:32 PM 52.0 °F - 17.4 °F 26% 29.93 in 10.0 mi ENE 11.5 mph 16.1 mph N/A   Clear
3:52 PM 48.2 °F - 19.2 °F 32% 29.93 in 10.0 mi North 11.5 mph 26.5 mph N/A   Clear
4:12 PM 50.2 °F - 19.9 °F 30% 29.94 in 10.0 mi North 10.4 mph 18.4 mph N/A   Clear
4:32 PM 48.4 °F - 19.2 °F 32% 29.93 in 10.0 mi North 8.1 mph 18.4 mph N/A   Clear
5:12 PM 46.4 °F 40.4 °F 19.4 °F 34% 29.93 in 10.0 mi North 13.8 mph 23.0 mph N/A   Clear
5:32 PM 45.0 °F 39.3 °F 20.7 °F 38% 29.94 in 10.0 mi North 11.5 mph 17.3 mph N/A   Clear
5:52 PM 43.2 °F 36.6 °F 21.9 °F 43% 29.94 in 10.0 mi North 12.7 mph - N/A   Clear
6:12 PM 41.2 °F 32.1 °F 22.3 °F 47% 29.96 in 10.0 mi NNE 19.6 mph 28.8 mph N/A   Mostly Cloudy
6:32 PM 33.3 °F 24.6 °F 27.3 °F 79% 30.00 in 10.0 mi ENE 11.5 mph 20.7 mph N/A   Mostly Cloudy
6:52 PM 32.0 °F 21.6 °F 27.5 °F 83% 29.99 in 10.0 mi NNE 15.0 mph - N/A   Mostly Cloudy
7:12 PM 31.6 °F 22.6 °F 27.9 °F 86% 30.01 in 10.0 mi NE 11.5 mph - N/A   Overcast
7:32 PM 30.7 °F 19.2 °F 28.2 °F 90% 30.01 in 10.0 mi North 17.3 mph - N/A   Mostly Cloudy
7:52 PM 30.2 °F 19.3 °F 28.0 °F 92% 30.02 in 10.0 mi North 15.0 mph 20.7 mph N/A   Overcast
8:12 PM 30.7 °F 19.6 °F 28.4 °F 91% 30.03 in 10.0 mi NNE 16.1 mph 19.6 mph N/A   Overcast
8:32 PM 30.7 °F 20.9 °F 28.4 °F 91% 30.04 in 10.0 mi NNE 12.7 mph 19.6 mph N/A   Overcast
8:52 PM 30.2 °F 19.3 °F 28.9 °F 95% 30.03 in 10.0 mi NNE 15.0 mph - N/A   Overcast
9:12 PM 30.0 °F 21.1 °F 29.3 °F 97% 30.05 in 0.2 mi NE 10.4 mph - N/A Snow Light Snow
9:32 PM 29.7 °F 19.6 °F 29.1 °F 98% 30.06 in 5.0 mi North 12.7 mph 19.6 mph N/A   Overcast
10:12 PM 28.6 °F 17.7 °F 28.2 °F 99% 30.06 in 1.8 mi NNE 13.8 mph 21.9 mph N/A   Overcast
10:32 PM 28.2 °F 16.8 °F 27.9 °F 99% 30.07 in 1.0 mi NNE 15.0 mph 20.7 mph N/A   Overcast
10:52 PM 27.5 °F 15.9 °F 27.3 °F 99% 30.09 in 0.5 mi NNE 15.0 mph 21.9 mph N/A Fog Light Freezing Fog
11:12 PM 27.0 °F 15.6 °F 26.6 °F 99% 30.09 in 0.8 mi NNE 13.8 mph - N/A   Overcast
11:32 PM 27.1 °F 15.9 °F 27.0 °F 99% 30.09 in 3.0 mi NNE 13.8 mph - N/A   Overcast
11:52 PM 27.1 °F 17.5 °F 26.6 °F 98% 30.09 in 4.0 mi NNE 10.4 mph - N/A   Overcast